RJSF/FKS METAR and TAF weather

Enter ICAO airport designator
Station Type Date Time Source
RJSF METAR 2021/06/25 02:00 UTC NOAA

RJSF 250200Z 20003KT 160V260 9999 FEW012 SCT030 BKN/// 23/19 Q1014


Station Type Date Time Source
RJSF Decoded METAR 2021/06/25 02:00 UTC NOAA

Fukushima Airport, Japan (RJSF) 37-14N 140-26E 375M
Jun 24, 2021 - 10:00 PM EDT / 2021.06.25 0200 UTC
Wind: from the SSW (200 degrees) at 3 MPH (3 KT) (direction variable):0
Visibility: greater than 7 mile(s):0
Sky conditions: mostly cloudy
Temperature: 73 F (23 C)
Dew Point: 66 F (19 C)
Relative Humidity: 78%
Pressure (altimeter): 29.94 in. Hg (1014 hPa)
ob: RJSF 250200Z 20003KT 160V260 9999 FEW012 SCT030 BKN/// 23/19 Q1014
cycle: 2

Station Type Date Time Source
RJSF TAF 2021/06/24 18:30 UTC NOAA

TAF RJSF 241705Z 2418/2600 18005KT 9999 FEW010 BKN030
TEMPO 2418/2422 1500 BR FEW001 BKN003

Example: see airport list